sensor_id;sensor_type;location;lat;lon;timestamp;P1;durP1;ratioP1;P2;durP2;ratioP2
64826;SDS011;51265;53.972;12.286;2022-11-15T00:00:05;91.05;;;36.67;;
64826;SDS011;51265;53.972;12.286;2022-11-15T00:02:54;92.40;;;37.10;;
64826;SDS011;51265;53.972;12.286;2022-11-15T00:05:40;89.47;;;34.88;;
64826;SDS011;51265;53.972;12.286;2022-11-15T00:08:28;88.45;;;35.03;;
64826;SDS011;51265;53.972;12.286;2022-11-15T00:11:14;80.45;;;34.33;;
64826;SDS011;51265;53.972;12.286;2022-11-15T00:14:00;85.85;;;35.83;;
64826;SDS011;51265;53.972;12.286;2022-11-15T00:16:46;78.28;;;33.20;;
64826;SDS011;51265;53.972;12.286;2022-11-15T00:19:31;83.88;;;34.13;;
64826;SDS011;51265;53.972;12.286;2022-11-15T00:22:17;87.68;;;35.55;;
64826;SDS011;51265;53.972;12.286;2022-11-15T00:25:02;78.05;;;33.28;;
64826;SDS011;51265;53.972;12.286;2022-11-15T00:27:47;89.95;;;35.53;;
64826;SDS011;51265;53.972;12.286;2022-11-15T00:30:33;84.80;;;34.22;;
64826;SDS011;51265;53.972;12.286;2022-11-15T00:33:18;86.03;;;34.15;;
64826;SDS011;51265;53.972;12.286;2022-11-15T00:36:07;86.70;;;33.80;;
64826;SDS011;51265;53.972;12.286;2022-11-15T00:38:53;83.50;;;34.33;;
64826;SDS011;51265;53.972;12.286;2022-11-15T00:41:39;79.25;;;32.80;;
64826;SDS011;51265;53.972;12.286;2022-11-15T00:44:24;82.43;;;34.10;;
64826;SDS011;51265;53.972;12.286;2022-11-15T00:47:08;83.95;;;35.28;;
64826;SDS011;51265;53.972;12.286;2022-11-15T00:49:53;81.78;;;33.28;;
64826;SDS011;51265;53.972;12.286;2022-11-15T00:52:52;79.13;;;33.25;;
64826;SDS011;51265;53.972;12.286;2022-11-15T00:55:37;78.88;;;31.95;;
64826;SDS011;51265;53.972;12.286;2022-11-15T00:58:22;79.68;;;32.53;;
64826;SDS011;51265;53.972;12.286;2022-11-15T01:01:08;83.70;;;32.78;;
64826;SDS011;51265;53.972;12.286;2022-11-15T01:03:54;77.15;;;32.80;;
64826;SDS011;51265;53.972;12.286;2022-11-15T01:06:39;84.40;;;33.97;;
64826;SDS011;51265;53.972;12.286;2022-11-15T01:09:23;83.32;;;34.55;;
64826;SDS011;51265;53.972;12.286;2022-11-15T01:12:08;80.78;;;33.67;;
64826;SDS011;51265;53.972;12.286;2022-11-15T01:14:54;77.90;;;34.20;;
64826;SDS011;51265;53.972;12.286;2022-11-15T01:17:39;77.97;;;31.77;;
64826;SDS011;51265;53.972;12.286;2022-11-15T01:20:24;83.45;;;33.03;;
64826;SDS011;51265;53.972;12.286;2022-11-15T01:23:09;72.25;;;31.45;;
64826;SDS011;51265;53.972;12.286;2022-11-15T01:25:58;79.32;;;32.97;;
64826;SDS011;51265;53.972;12.286;2022-11-15T01:28:44;82.60;;;34.25;;
64826;SDS011;51265;53.972;12.286;2022-11-15T01:31:29;80.65;;;33.75;;
64826;SDS011;51265;53.972;12.286;2022-11-15T01:34:14;80.10;;;34.22;;
64826;SDS011;51265;53.972;12.286;2022-11-15T01:36:59;72.50;;;33.28;;
64826;SDS011;51265;53.972;12.286;2022-11-15T01:39:44;81.95;;;33.92;;
64826;SDS011;51265;53.972;12.286;2022-11-15T01:42:28;82.13;;;34.58;;
64826;SDS011;51265;53.972;12.286;2022-11-15T01:45:14;79.55;;;32.42;;
64826;SDS011;51265;53.972;12.286;2022-11-15T01:47:59;79.85;;;33.10;;
64826;SDS011;51265;53.972;12.286;2022-11-15T01:50:45;74.45;;;32.85;;
64826;SDS011;51265;53.972;12.286;2022-11-15T01:53:31;71.82;;;31.50;;
64826;SDS011;51265;53.972;12.286;2022-11-15T01:56:19;76.63;;;32.10;;
64826;SDS011;51265;53.972;12.286;2022-11-15T01:59:07;73.20;;;31.35;;
64826;SDS011;51265;53.972;12.286;2022-11-15T02:01:54;81.82;;;31.23;;
64826;SDS011;51265;53.972;12.286;2022-11-15T02:04:42;74.38;;;31.83;;
64826;SDS011;51265;53.972;12.286;2022-11-15T02:07:29;70.70;;;30.25;;
64826;SDS011;51265;53.972;12.286;2022-11-15T02:10:20;70.60;;;30.40;;
64826;SDS011;51265;53.972;12.286;2022-11-15T02:13:06;69.90;;;31.13;;
64826;SDS011;51265;53.972;12.286;2022-11-15T02:22:30;73.25;;;31.75;;
64826;SDS011;51265;53.972;12.286;2022-11-15T02:25:41;69.38;;;30.77;;
64826;SDS011;51265;53.972;12.286;2022-11-15T02:35:39;74.07;;;30.63;;
64826;SDS011;51265;53.972;12.286;2022-11-15T02:38:57;71.32;;;30.00;;
64826;SDS011;51265;53.972;12.286;2022-11-15T02:41:57;71.55;;;30.95;;
64826;SDS011;51265;53.972;12.286;2022-11-15T02:44:47;69.78;;;29.70;;
64826;SDS011;51265;53.972;12.286;2022-11-15T02:47:35;68.53;;;29.98;;
64826;SDS011;51265;53.972;12.286;2022-11-15T02:50:27;70.70;;;29.48;;
64826;SDS011;51265;53.972;12.286;2022-11-15T02:53:14;70.13;;;30.58;;
64826;SDS011;51265;53.972;12.286;2022-11-15T02:55:59;63.83;;;29.25;;
64826;SDS011;51265;53.972;12.286;2022-11-15T03:01:40;72.05;;;29.90;;
64826;SDS011;51265;53.972;12.286;2022-11-15T03:10:52;67.57;;;29.17;;
64826;SDS011;51265;53.972;12.286;2022-11-15T03:16:54;67.60;;;29.55;;
64826;SDS011;51265;53.972;12.286;2022-11-15T03:19:50;64.10;;;28.45;;
64826;SDS011;51265;53.972;12.286;2022-11-15T03:22:41;66.30;;;29.33;;
64826;SDS011;51265;53.972;12.286;2022-11-15T03:25:28;69.55;;;29.35;;
64826;SDS011;51265;53.972;12.286;2022-11-15T03:28:17;65.22;;;29.63;;
64826;SDS011;51265;53.972;12.286;2022-11-15T03:31:06;61.65;;;27.23;;
64826;SDS011;51265;53.972;12.286;2022-11-15T03:34:16;72.10;;;30.20;;
64826;SDS011;51265;53.972;12.286;2022-11-15T03:37:22;65.82;;;27.55;;
64826;SDS011;51265;53.972;12.286;2022-11-15T03:40:12;61.33;;;27.67;;
64826;SDS011;51265;53.972;12.286;2022-11-15T03:45:59;69.68;;;28.98;;
64826;SDS011;51265;53.972;12.286;2022-11-15T03:48:48;63.22;;;28.73;;
64826;SDS011;51265;53.972;12.286;2022-11-15T03:51:38;62.60;;;28.33;;
64826;SDS011;51265;53.972;12.286;2022-11-15T03:54:23;64.80;;;28.92;;
64826;SDS011;51265;53.972;12.286;2022-11-15T03:57:08;59.97;;;27.73;;
64826;SDS011;51265;53.972;12.286;2022-11-15T03:59:53;64.05;;;28.25;;
64826;SDS011;51265;53.972;12.286;2022-11-15T04:02:37;66.97;;;29.13;;
64826;SDS011;51265;53.972;12.286;2022-11-15T04:05:22;66.43;;;28.73;;
64826;SDS011;51265;53.972;12.286;2022-11-15T04:08:07;61.25;;;27.05;;
64826;SDS011;51265;53.972;12.286;2022-11-15T04:10:52;64.90;;;29.10;;
64826;SDS011;51265;53.972;12.286;2022-11-15T04:13:36;61.92;;;28.60;;
64826;SDS011;51265;53.972;12.286;2022-11-15T04:16:21;65.03;;;28.48;;
64826;SDS011;51265;53.972;12.286;2022-11-15T04:19:06;68.45;;;29.58;;
64826;SDS011;51265;53.972;12.286;2022-11-15T04:22:09;70.18;;;29.70;;
64826;SDS011;51265;53.972;12.286;2022-11-15T04:25:12;73.93;;;29.23;;
64826;SDS011;51265;53.972;12.286;2022-11-15T04:27:57;73.07;;;29.67;;
64826;SDS011;51265;53.972;12.286;2022-11-15T04:30:42;65.07;;;28.63;;
64826;SDS011;51265;53.972;12.286;2022-11-15T04:33:26;64.95;;;28.17;;
64826;SDS011;51265;53.972;12.286;2022-11-15T04:36:11;70.38;;;29.05;;
64826;SDS011;51265;53.972;12.286;2022-11-15T04:39:14;73.72;;;29.63;;
64826;SDS011;51265;53.972;12.286;2022-11-15T04:41:59;66.00;;;29.63;;
64826;SDS011;51265;53.972;12.286;2022-11-15T04:44:44;69.55;;;29.75;;
64826;SDS011;51265;53.972;12.286;2022-11-15T04:47:29;64.72;;;28.10;;
64826;SDS011;51265;53.972;12.286;2022-11-15T04:50:14;73.28;;;29.88;;
64826;SDS011;51265;53.972;12.286;2022-11-15T04:52:59;65.13;;;27.17;;
64826;SDS011;51265;53.972;12.286;2022-11-15T04:55:44;72.57;;;29.52;;
64826;SDS011;51265;53.972;12.286;2022-11-15T04:58:30;70.22;;;28.83;;
64826;SDS011;51265;53.972;12.286;2022-11-15T05:01:14;62.22;;;26.73;;
64826;SDS011;51265;53.972;12.286;2022-11-15T05:03:59;64.35;;;28.63;;
64826;SDS011;51265;53.972;12.286;2022-11-15T05:07:03;67.88;;;28.67;;
64826;SDS011;51265;53.972;12.286;2022-11-15T05:09:48;64.35;;;27.42;;
64826;SDS011;51265;53.972;12.286;2022-11-15T05:12:33;60.08;;;27.55;;
64826;SDS011;51265;53.972;12.286;2022-11-15T05:15:17;65.57;;;27.95;;
64826;SDS011;51265;53.972;12.286;2022-11-15T05:18:02;57.47;;;27.25;;
64826;SDS011;51265;53.972;12.286;2022-11-15T05:20:47;65.75;;;27.08;;
64826;SDS011;51265;53.972;12.286;2022-11-15T05:23:31;65.88;;;28.92;;
64826;SDS011;51265;53.972;12.286;2022-11-15T05:26:24;58.70;;;27.13;;
64826;SDS011;51265;53.972;12.286;2022-11-15T05:29:09;63.90;;;27.17;;
64826;SDS011;51265;53.972;12.286;2022-11-15T05:31:55;60.25;;;27.65;;
64826;SDS011;51265;53.972;12.286;2022-11-15T05:34:39;79.97;;;27.25;;
64826;SDS011;51265;53.972;12.286;2022-11-15T05:37:24;63.75;;;25.95;;
64826;SDS011;51265;53.972;12.286;2022-11-15T05:40:09;56.92;;;25.98;;
64826;SDS011;51265;53.972;12.286;2022-11-15T05:42:54;58.08;;;26.67;;
64826;SDS011;51265;53.972;12.286;2022-11-15T05:45:38;61.35;;;25.95;;
64826;SDS011;51265;53.972;12.286;2022-11-15T05:48:23;77.32;;;31.35;;
64826;SDS011;51265;53.972;12.286;2022-11-15T05:51:08;204.48;;;47.38;;
64826;SDS011;51265;53.972;12.286;2022-11-15T05:53:52;74.03;;;35.15;;
64826;SDS011;51265;53.972;12.286;2022-11-15T05:56:40;66.72;;;31.20;;
64826;SDS011;51265;53.972;12.286;2022-11-15T05:59:28;61.55;;;28.42;;
64826;SDS011;51265;53.972;12.286;2022-11-15T06:02:15;70.60;;;28.52;;
64826;SDS011;51265;53.972;12.286;2022-11-15T06:04:59;56.22;;;26.17;;
64826;SDS011;51265;53.972;12.286;2022-11-15T06:07:44;59.78;;;25.73;;
64826;SDS011;51265;53.972;12.286;2022-11-15T06:10:28;59.28;;;26.40;;
64826;SDS011;51265;53.972;12.286;2022-11-15T06:13:13;66.05;;;26.48;;
64826;SDS011;51265;53.972;12.286;2022-11-15T06:15:57;63.47;;;27.88;;
64826;SDS011;51265;53.972;12.286;2022-11-15T06:18:42;57.92;;;26.17;;
64826;SDS011;51265;53.972;12.286;2022-11-15T06:21:27;106.15;;;32.75;;
64826;SDS011;51265;53.972;12.286;2022-11-15T06:24:13;133.93;;;59.53;;
64826;SDS011;51265;53.972;12.286;2022-11-15T06:26:58;95.45;;;36.30;;
64826;SDS011;51265;53.972;12.286;2022-11-15T06:29:43;74.47;;;29.83;;
64826;SDS011;51265;53.972;12.286;2022-11-15T06:32:28;65.40;;;29.17;;
64826;SDS011;51265;53.972;12.286;2022-11-15T06:35:14;61.25;;;27.38;;
64826;SDS011;51265;53.972;12.286;2022-11-15T06:38:03;58.33;;;25.42;;
64826;SDS011;51265;53.972;12.286;2022-11-15T06:40:49;59.92;;;26.80;;
64826;SDS011;51265;53.972;12.286;2022-11-15T06:43:34;66.80;;;27.55;;
64826;SDS011;51265;53.972;12.286;2022-11-15T06:46:20;66.28;;;26.30;;
64826;SDS011;51265;53.972;12.286;2022-11-15T06:49:04;54.60;;;26.73;;
64826;SDS011;51265;53.972;12.286;2022-11-15T06:51:49;51.05;;;25.00;;
64826;SDS011;51265;53.972;12.286;2022-11-15T06:54:33;82.60;;;26.20;;
64826;SDS011;51265;53.972;12.286;2022-11-15T06:57:18;49.17;;;24.63;;
64826;SDS011;51265;53.972;12.286;2022-11-15T07:00:03;55.13;;;25.33;;
64826;SDS011;51265;53.972;12.286;2022-11-15T07:02:49;57.95;;;26.20;;
64826;SDS011;51265;53.972;12.286;2022-11-15T07:05:33;60.58;;;28.23;;
64826;SDS011;51265;53.972;12.286;2022-11-15T07:08:18;62.50;;;28.88;;
64826;SDS011;51265;53.972;12.286;2022-11-15T07:11:06;57.17;;;27.23;;
64826;SDS011;51265;53.972;12.286;2022-11-15T07:13:52;103.60;;;49.10;;
64826;SDS011;51265;53.972;12.286;2022-11-15T07:16:36;87.18;;;39.40;;
64826;SDS011;51265;53.972;12.286;2022-11-15T07:19:21;71.20;;;33.08;;
64826;SDS011;51265;53.972;12.286;2022-11-15T07:22:06;69.93;;;29.83;;
64826;SDS011;51265;53.972;12.286;2022-11-15T07:24:51;67.78;;;31.58;;
64826;SDS011;51265;53.972;12.286;2022-11-15T07:27:35;68.45;;;30.08;;
64826;SDS011;51265;53.972;12.286;2022-11-15T07:30:20;72.30;;;30.77;;
64826;SDS011;51265;53.972;12.286;2022-11-15T07:33:05;66.32;;;29.98;;
64826;SDS011;51265;53.972;12.286;2022-11-15T07:35:49;67.93;;;30.08;;
64826;SDS011;51265;53.972;12.286;2022-11-15T07:38:34;132.27;;;63.65;;
64826;SDS011;51265;53.972;12.286;2022-11-15T07:41:19;108.13;;;47.97;;
64826;SDS011;51265;53.972;12.286;2022-11-15T07:44:04;87.53;;;39.58;;
64826;SDS011;51265;53.972;12.286;2022-11-15T07:46:49;71.97;;;32.50;;
64826;SDS011;51265;53.972;12.286;2022-11-15T07:49:34;70.38;;;31.75;;
64826;SDS011;51265;53.972;12.286;2022-11-15T07:52:18;62.45;;;29.92;;
64826;SDS011;51265;53.972;12.286;2022-11-15T07:55:03;59.30;;;28.55;;
64826;SDS011;51265;53.972;12.286;2022-11-15T07:57:48;58.33;;;27.85;;
64826;SDS011;51265;53.972;12.286;2022-11-15T08:00:33;60.92;;;29.45;;
64826;SDS011;51265;53.972;12.286;2022-11-15T08:03:19;60.45;;;29.13;;
64826;SDS011;51265;53.972;12.286;2022-11-15T08:06:03;55.95;;;28.27;;
64826;SDS011;51265;53.972;12.286;2022-11-15T08:08:48;57.15;;;28.25;;
64826;SDS011;51265;53.972;12.286;2022-11-15T08:11:33;52.67;;;26.65;;
64826;SDS011;51265;53.972;12.286;2022-11-15T08:14:18;54.42;;;27.02;;
64826;SDS011;51265;53.972;12.286;2022-11-15T08:17:02;55.15;;;27.88;;
64826;SDS011;51265;53.972;12.286;2022-11-15T08:19:47;55.95;;;27.80;;
64826;SDS011;51265;53.972;12.286;2022-11-15T08:22:33;57.88;;;28.90;;
64826;SDS011;51265;53.972;12.286;2022-11-15T08:25:18;54.80;;;27.95;;
64826;SDS011;51265;53.972;12.286;2022-11-15T08:28:04;52.38;;;27.10;;
64826;SDS011;51265;53.972;12.286;2022-11-15T08:30:50;58.95;;;27.23;;
64826;SDS011;51265;53.972;12.286;2022-11-15T08:33:34;56.50;;;27.85;;
64826;SDS011;51265;53.972;12.286;2022-11-15T08:36:19;56.22;;;28.75;;
64826;SDS011;51265;53.972;12.286;2022-11-15T08:39:04;54.03;;;27.40;;
64826;SDS011;51265;53.972;12.286;2022-11-15T08:41:49;53.42;;;26.50;;
64826;SDS011;51265;53.972;12.286;2022-11-15T08:44:34;52.38;;;27.50;;
64826;SDS011;51265;53.972;12.286;2022-11-15T08:47:18;55.20;;;27.75;;
64826;SDS011;51265;53.972;12.286;2022-11-15T08:50:03;54.05;;;28.02;;
64826;SDS011;51265;53.972;12.286;2022-11-15T08:52:48;51.75;;;27.55;;
64826;SDS011;51265;53.972;12.286;2022-11-15T08:55:37;49.40;;;27.35;;
64826;SDS011;51265;53.972;12.286;2022-11-15T08:58:23;53.65;;;27.63;;
64826;SDS011;51265;53.972;12.286;2022-11-15T09:01:13;52.92;;;26.20;;
64826;SDS011;51265;53.972;12.286;2022-11-15T09:04:00;52.63;;;27.93;;
64826;SDS011;51265;53.972;12.286;2022-11-15T09:06:45;47.95;;;26.77;;
64826;SDS011;51265;53.972;12.286;2022-11-15T09:09:30;45.30;;;25.63;;
64826;SDS011;51265;53.972;12.286;2022-11-15T09:12:14;49.05;;;26.35;;
64826;SDS011;51265;53.972;12.286;2022-11-15T09:14:59;48.45;;;25.80;;
64826;SDS011;51265;53.972;12.286;2022-11-15T09:17:43;48.28;;;27.05;;
64826;SDS011;51265;53.972;12.286;2022-11-15T09:20:28;50.38;;;26.40;;
64826;SDS011;51265;53.972;12.286;2022-11-15T09:23:13;49.72;;;26.05;;
64826;SDS011;51265;53.972;12.286;2022-11-15T09:25:58;43.33;;;24.90;;
64826;SDS011;51265;53.972;12.286;2022-11-15T09:28:47;49.97;;;25.45;;
64826;SDS011;51265;53.972;12.286;2022-11-15T09:31:32;44.70;;;24.42;;
64826;SDS011;51265;53.972;12.286;2022-11-15T09:34:17;43.63;;;25.50;;
64826;SDS011;51265;53.972;12.286;2022-11-15T09:37:01;43.20;;;25.08;;
64826;SDS011;51265;53.972;12.286;2022-11-15T09:39:46;46.35;;;25.73;;
64826;SDS011;51265;53.972;12.286;2022-11-15T09:42:49;44.83;;;26.02;;
64826;SDS011;51265;53.972;12.286;2022-11-15T09:45:41;41.25;;;24.02;;
64826;SDS011;51265;53.972;12.286;2022-11-15T09:48:50;44.10;;;24.15;;
64826;SDS011;51265;53.972;12.286;2022-11-15T09:51:44;47.65;;;26.65;;
64826;SDS011;51265;53.972;12.286;2022-11-15T09:57:06;44.92;;;25.15;;
64826;SDS011;51265;53.972;12.286;2022-11-15T10:02:23;46.53;;;26.33;;
64826;SDS011;51265;53.972;12.286;2022-11-15T10:04:55;46.50;;;24.83;;
64826;SDS011;51265;53.972;12.286;2022-11-15T10:12:56;43.88;;;24.75;;
64826;SDS011;51265;53.972;12.286;2022-11-15T10:15:23;44.03;;;24.98;;
64826;SDS011;51265;53.972;12.286;2022-11-15T10:20:28;39.17;;;23.08;;
64826;SDS011;51265;53.972;12.286;2022-11-15T10:22:58;42.03;;;24.90;;
64826;SDS011;51265;53.972;12.286;2022-11-15T10:25:27;41.67;;;23.02;;
64826;SDS011;51265;53.972;12.286;2022-11-15T10:28:03;39.83;;;24.52;;
64826;SDS011;51265;53.972;12.286;2022-11-15T10:30:42;41.20;;;24.23;;
64826;SDS011;51265;53.972;12.286;2022-11-15T10:33:17;37.25;;;22.45;;
64826;SDS011;51265;53.972;12.286;2022-11-15T10:35:49;37.47;;;22.08;;
64826;SDS011;51265;53.972;12.286;2022-11-15T10:41:17;36.70;;;22.65;;
64826;SDS011;51265;53.972;12.286;2022-11-15T10:46:28;35.83;;;21.08;;
64826;SDS011;51265;53.972;12.286;2022-11-15T10:49:03;32.50;;;20.90;;
64826;SDS011;51265;53.972;12.286;2022-11-15T10:51:55;36.15;;;21.90;;
64826;SDS011;51265;53.972;12.286;2022-11-15T10:54:25;36.47;;;22.23;;
64826;SDS011;51265;53.972;12.286;2022-11-15T10:56:59;36.65;;;22.08;;
64826;SDS011;51265;53.972;12.286;2022-11-15T10:59:32;36.33;;;21.48;;
64826;SDS011;51265;53.972;12.286;2022-11-15T11:02:01;36.03;;;21.55;;
64826;SDS011;51265;53.972;12.286;2022-11-15T11:04:27;37.33;;;22.02;;
64826;SDS011;51265;53.972;12.286;2022-11-15T11:06:54;33.55;;;20.90;;
64826;SDS011;51265;53.972;12.286;2022-11-15T11:09:35;31.02;;;20.67;;
64826;SDS011;51265;53.972;12.286;2022-11-15T11:12:04;42.20;;;25.58;;
64826;SDS011;51265;53.972;12.286;2022-11-15T11:14:32;41.63;;;26.17;;
64826;SDS011;51265;53.972;12.286;2022-11-15T11:34:04;48.10;;;28.85;;
64826;SDS011;51265;53.972;12.286;2022-11-15T11:42:06;32.83;;;19.67;;
64826;SDS011;51265;53.972;12.286;2022-11-15T11:44:41;30.98;;;19.48;;
64826;SDS011;51265;53.972;12.286;2022-11-15T11:47:24;33.03;;;20.40;;
64826;SDS011;51265;53.972;12.286;2022-11-15T11:50:01;33.17;;;19.73;;
64826;SDS011;51265;53.972;12.286;2022-11-15T11:52:56;29.67;;;20.63;;
64826;SDS011;51265;53.972;12.286;2022-11-15T11:58:13;30.98;;;20.10;;
64826;SDS011;51265;53.972;12.286;2022-11-15T12:00:41;35.08;;;21.15;;
64826;SDS011;51265;53.972;12.286;2022-11-15T12:03:46;30.55;;;19.25;;
64826;SDS011;51265;53.972;12.286;2022-11-15T12:09:00;30.40;;;20.13;;
64826;SDS011;51265;53.972;12.286;2022-11-15T12:14:44;31.08;;;19.90;;
64826;SDS011;51265;53.972;12.286;2022-11-15T12:17:13;30.38;;;20.90;;
64826;SDS011;51265;53.972;12.286;2022-11-15T12:19:43;34.83;;;20.50;;
64826;SDS011;51265;53.972;12.286;2022-11-15T12:22:18;29.25;;;19.73;;
64826;SDS011;51265;53.972;12.286;2022-11-15T12:30:00;28.45;;;19.98;;
64826;SDS011;51265;53.972;12.286;2022-11-15T12:32:37;29.95;;;19.98;;
64826;SDS011;51265;53.972;12.286;2022-11-15T12:35:05;27.42;;;19.05;;
64826;SDS011;51265;53.972;12.286;2022-11-15T12:37:50;28.75;;;18.60;;
64826;SDS011;51265;53.972;12.286;2022-11-15T12:40:20;27.55;;;19.02;;
64826;SDS011;51265;53.972;12.286;2022-11-15T12:43:04;31.25;;;19.90;;
64826;SDS011;51265;53.972;12.286;2022-11-15T12:45:34;27.30;;;18.45;;
64826;SDS011;51265;53.972;12.286;2022-11-15T12:58:57;26.20;;;18.75;;
64826;SDS011;51265;53.972;12.286;2022-11-15T13:06:46;29.00;;;18.92;;
64826;SDS011;51265;53.972;12.286;2022-11-15T13:11:55;35.72;;;21.40;;
64826;SDS011;51265;53.972;12.286;2022-11-15T13:14:38;31.60;;;19.85;;
64826;SDS011;51265;53.972;12.286;2022-11-15T13:17:37;31.63;;;20.23;;
64826;SDS011;51265;53.972;12.286;2022-11-15T13:22:46;32.25;;;21.02;;
64826;SDS011;51265;53.972;12.286;2022-11-15T13:31:01;37.10;;;22.60;;
64826;SDS011;51265;53.972;12.286;2022-11-15T13:33:44;41.03;;;23.20;;
64826;SDS011;51265;53.972;12.286;2022-11-15T13:36:15;38.47;;;22.83;;
64826;SDS011;51265;53.972;12.286;2022-11-15T13:38:45;41.00;;;24.02;;
64826;SDS011;51265;53.972;12.286;2022-11-15T13:41:31;37.38;;;22.42;;
64826;SDS011;51265;53.972;12.286;2022-11-15T13:44:02;36.97;;;21.27;;
64826;SDS011;51265;53.972;12.286;2022-11-15T13:46:29;39.70;;;21.38;;
64826;SDS011;51265;53.972;12.286;2022-11-15T13:49:02;38.20;;;22.20;;
64826;SDS011;51265;53.972;12.286;2022-11-15T13:54:16;36.10;;;21.73;;
64826;SDS011;51265;53.972;12.286;2022-11-15T13:56:57;39.13;;;21.27;;
64826;SDS011;51265;53.972;12.286;2022-11-15T13:59:28;37.17;;;21.15;;
64826;SDS011;51265;53.972;12.286;2022-11-15T14:02:14;40.53;;;22.88;;
64826;SDS011;51265;53.972;12.286;2022-11-15T14:04:53;40.85;;;21.80;;
64826;SDS011;51265;53.972;12.286;2022-11-15T14:07:24;40.47;;;23.40;;
64826;SDS011;51265;53.972;12.286;2022-11-15T14:09:51;39.13;;;22.05;;
64826;SDS011;51265;53.972;12.286;2022-11-15T14:14:51;42.70;;;24.45;;
64826;SDS011;51265;53.972;12.286;2022-11-15T14:17:32;61.53;;;34.20;;
64826;SDS011;51265;53.972;12.286;2022-11-15T14:20:00;45.27;;;25.50;;
64826;SDS011;51265;53.972;12.286;2022-11-15T14:22:27;42.15;;;23.90;;
64826;SDS011;51265;53.972;12.286;2022-11-15T14:25:13;36.75;;;21.08;;
64826;SDS011;51265;53.972;12.286;2022-11-15T14:27:39;38.60;;;21.42;;
64826;SDS011;51265;53.972;12.286;2022-11-15T14:30:11;37.28;;;21.90;;
64826;SDS011;51265;53.972;12.286;2022-11-15T14:35:16;39.08;;;21.35;;
64826;SDS011;51265;53.972;12.286;2022-11-15T14:37:45;46.15;;;22.00;;
64826;SDS011;51265;53.972;12.286;2022-11-15T14:40:13;40.85;;;21.77;;
64826;SDS011;51265;53.972;12.286;2022-11-15T14:42:41;40.05;;;21.13;;
64826;SDS011;51265;53.972;12.286;2022-11-15T14:45:18;40.10;;;22.17;;
64826;SDS011;51265;53.972;12.286;2022-11-15T14:47:47;43.55;;;22.60;;
64826;SDS011;51265;53.972;12.286;2022-11-15T14:50:18;53.40;;;22.20;;
64826;SDS011;51265;53.972;12.286;2022-11-15T14:52:45;41.30;;;22.58;;
64826;SDS011;51265;53.972;12.286;2022-11-15T14:55:14;43.40;;;22.80;;
64826;SDS011;51265;53.972;12.286;2022-11-15T14:57:52;45.13;;;23.45;;
64826;SDS011;51265;53.972;12.286;2022-11-15T15:00:18;46.92;;;22.98;;
64826;SDS011;51265;53.972;12.286;2022-11-15T15:02:45;43.65;;;23.77;;
64826;SDS011;51265;53.972;12.286;2022-11-15T15:07:38;45.75;;;23.35;;
64826;SDS011;51265;53.972;12.286;2022-11-15T15:10:04;45.22;;;23.88;;
64826;SDS011;51265;53.972;12.286;2022-11-15T15:12:30;46.42;;;22.23;;
64826;SDS011;51265;53.972;12.286;2022-11-15T15:14:56;45.97;;;20.85;;
64826;SDS011;51265;53.972;12.286;2022-11-15T15:17:21;47.83;;;19.40;;
64826;SDS011;51265;53.972;12.286;2022-11-15T15:19:47;48.25;;;21.38;;
64826;SDS011;51265;53.972;12.286;2022-11-15T15:22:17;55.50;;;21.40;;
64826;SDS011;51265;53.972;12.286;2022-11-15T15:24:45;87.65;;;21.58;;
64826;SDS011;51265;53.972;12.286;2022-11-15T15:27:12;80.13;;;21.20;;
64826;SDS011;51265;53.972;12.286;2022-11-15T15:29:38;59.90;;;21.05;;
64826;SDS011;51265;53.972;12.286;2022-11-15T15:32:04;59.85;;;21.73;;
64826;SDS011;51265;53.972;12.286;2022-11-15T15:34:31;49.10;;;23.80;;
64826;SDS011;51265;53.972;12.286;2022-11-15T15:39:51;72.63;;;21.93;;
64826;SDS011;51265;53.972;12.286;2022-11-15T15:42:18;90.75;;;23.27;;
64826;SDS011;51265;53.972;12.286;2022-11-15T15:44:45;70.95;;;22.92;;
64826;SDS011;51265;53.972;12.286;2022-11-15T15:47:16;66.70;;;22.05;;
64826;SDS011;51265;53.972;12.286;2022-11-15T15:49:45;50.28;;;21.58;;
64826;SDS011;51265;53.972;12.286;2022-11-15T15:52:11;55.85;;;23.52;;
64826;SDS011;51265;53.972;12.286;2022-11-15T15:54:37;64.57;;;23.27;;
64826;SDS011;51265;53.972;12.286;2022-11-15T15:57:03;54.63;;;22.60;;
64826;SDS011;51265;53.972;12.286;2022-11-15T15:59:30;56.13;;;23.90;;
64826;SDS011;51265;53.972;12.286;2022-11-15T16:01:56;75.35;;;28.65;;
64826;SDS011;51265;53.972;12.286;2022-11-15T16:04:22;83.32;;;32.97;;
64826;SDS011;51265;53.972;12.286;2022-11-15T16:06:48;111.18;;;27.02;;
64826;SDS011;51265;53.972;12.286;2022-11-15T16:09:17;113.32;;;23.83;;
64826;SDS011;51265;53.972;12.286;2022-11-15T16:11:44;75.68;;;22.90;;
64826;SDS011;51265;53.972;12.286;2022-11-15T16:14:11;54.95;;;23.15;;
64826;SDS011;51265;53.972;12.286;2022-11-15T16:16:37;78.93;;;23.45;;
64826;SDS011;51265;53.972;12.286;2022-11-15T16:19:04;82.82;;;23.73;;
64826;SDS011;51265;53.972;12.286;2022-11-15T16:21:30;92.43;;;24.15;;
64826;SDS011;51265;53.972;12.286;2022-11-15T16:23:56;66.95;;;22.70;;
64826;SDS011;51265;53.972;12.286;2022-11-15T16:26:23;73.95;;;23.70;;
64826;SDS011;51265;53.972;12.286;2022-11-15T16:28:51;135.25;;;26.80;;
64826;SDS011;51265;53.972;12.286;2022-11-15T16:31:17;71.65;;;24.00;;
64826;SDS011;51265;53.972;12.286;2022-11-15T16:33:45;91.07;;;23.90;;
64826;SDS011;51265;53.972;12.286;2022-11-15T16:36:20;94.47;;;25.92;;
64826;SDS011;51265;53.972;12.286;2022-11-15T16:38:52;155.70;;;28.35;;
64826;SDS011;51265;53.972;12.286;2022-11-15T16:41:18;150.02;;;26.63;;
64826;SDS011;51265;53.972;12.286;2022-11-15T16:43:44;64.88;;;24.70;;
64826;SDS011;51265;53.972;12.286;2022-11-15T16:46:23;71.00;;;26.33;;
64826;SDS011;51265;53.972;12.286;2022-11-15T16:48:50;82.47;;;26.20;;
64826;SDS011;51265;53.972;12.286;2022-11-15T16:51:18;73.10;;;26.13;;
64826;SDS011;51265;53.972;12.286;2022-11-15T16:53:44;75.78;;;26.67;;
64826;SDS011;51265;53.972;12.286;2022-11-15T16:56:14;81.45;;;24.17;;
64826;SDS011;51265;53.972;12.286;2022-11-15T16:58:45;64.70;;;25.55;;
64826;SDS011;51265;53.972;12.286;2022-11-15T17:01:19;78.95;;;24.33;;
64826;SDS011;51265;53.972;12.286;2022-11-15T17:03:48;90.18;;;26.98;;
64826;SDS011;51265;53.972;12.286;2022-11-15T17:06:19;66.75;;;26.33;;
64826;SDS011;51265;53.972;12.286;2022-11-15T17:08:47;80.80;;;26.30;;
64826;SDS011;51265;53.972;12.286;2022-11-15T17:11:17;103.30;;;26.83;;
64826;SDS011;51265;53.972;12.286;2022-11-15T17:13:45;63.08;;;25.50;;
64826;SDS011;51265;53.972;12.286;2022-11-15T17:16:12;81.80;;;24.63;;
64826;SDS011;51265;53.972;12.286;2022-11-15T17:18:39;86.50;;;29.75;;
64826;SDS011;51265;53.972;12.286;2022-11-15T17:21:07;83.53;;;27.83;;
64826;SDS011;51265;53.972;12.286;2022-11-15T17:23:36;81.22;;;27.73;;
64826;SDS011;51265;53.972;12.286;2022-11-15T17:26:03;80.65;;;27.38;;
64826;SDS011;51265;53.972;12.286;2022-11-15T17:28:33;67.57;;;23.50;;